createdAt,value
2019-03-29T01:00:40.480Z,6.70
2019-03-29T01:05:41.785Z,6.20
2019-03-29T01:10:43.116Z,7.07
2019-03-29T01:15:44.432Z,6.90
2019-03-29T01:20:45.774Z,7.40
2019-03-29T01:25:47.090Z,7.37
2019-03-29T02:34:10.207Z,9.87
2019-03-29T02:39:12.256Z,8.93
2019-03-29T02:44:13.580Z,8.93
2019-03-29T02:49:14.895Z,9.00
2019-03-29T02:54:16.209Z,9.90
2019-03-29T02:59:17.497Z,9.47
2019-03-29T04:01:18.324Z,10.63
2019-03-29T04:06:20.353Z,9.83
2019-03-29T04:11:21.686Z,10.50
2019-03-29T04:16:23.010Z,10.23
2019-03-29T04:21:24.371Z,10.33
2019-03-29T04:26:25.721Z,10.00
2019-03-29T05:34:47.249Z,11.43
2019-03-29T05:39:48.608Z,11.50
2019-03-29T05:44:50.010Z,11.97
2019-03-29T05:49:51.298Z,11.10
2019-03-29T05:54:52.649Z,12.77
2019-03-29T05:59:54.715Z,11.27
2019-03-29T07:01:59.175Z,13.03
2019-03-29T07:07:00.453Z,15.20
2019-03-29T07:12:01.797Z,15.37
2019-03-29T07:17:03.122Z,14.00
2019-03-29T07:22:04.398Z,13.80
2019-03-29T07:27:06.461Z,15.50
2019-03-29T08:35:28.149Z,12.00
2019-03-29T08:40:29.455Z,10.17
2019-03-29T08:45:30.772Z,11.83
2019-03-29T08:50:32.064Z,10.57
2019-03-29T08:55:45.110Z,10.87
2019-03-29T09:00:34.681Z,10.70
2019-03-29T10:02:36.473Z,7.20
2019-03-29T10:07:37.765Z,7.70
2019-03-29T10:12:43.682Z,6.70
2019-03-29T10:17:40.474Z,6.47
2019-03-29T10:22:41.836Z,6.20
2019-03-29T10:27:43.097Z,6.07
2019-03-29T11:36:06.448Z,6.30
2019-03-29T11:41:08.468Z,5.97
2019-03-29T11:46:09.745Z,6.27
2019-03-29T11:51:19.192Z,5.40
2019-03-29T11:56:12.357Z,6.73
2019-03-29T13:04:36.321Z,7.33
2019-03-29T13:09:39.775Z,7.03
2019-03-29T13:14:39.657Z,8.00
2019-03-29T13:19:41.680Z,7.27
2019-03-29T13:24:42.992Z,5.83
2019-03-29T13:29:45.094Z,7.47
2019-03-29T14:31:47.869Z,7.13
2019-03-29T14:36:49.162Z,7.47
2019-03-29T14:41:50.518Z,8.27
2019-03-29T14:46:51.941Z,5.40
2019-03-29T14:51:53.227Z,6.87
2019-03-29T14:56:54.533Z,7.77
2019-03-29T16:05:16.414Z,9.20
2019-03-29T16:10:17.769Z,8.87
2019-03-29T16:15:34.950Z,7.17
2019-03-29T16:20:27.500Z,7.00
2019-03-29T16:25:28.869Z,9.70
2019-03-29T16:30:32.842Z,7.60
2019-03-29T16:35:34.832Z,7.70
2019-03-29T16:40:36.213Z,7.93
2019-03-29T16:45:47.867Z,9.27
2019-03-29T16:50:39.007Z,7.50
2019-03-29T16:55:40.366Z,8.60
2019-03-29T17:00:41.822Z,9.00
2019-03-29T17:05:43.347Z,7.57
2019-03-29T17:10:44.840Z,8.43
2019-03-29T17:15:46.280Z,7.87
2019-03-29T17:20:48.607Z,8.77
2019-03-29T17:25:49.900Z,7.47
2019-03-29T17:30:51.284Z,7.93
2019-03-29T17:35:56.445Z,7.80
2019-03-29T17:40:58.032Z,8.10
2019-03-29T17:45:59.612Z,8.23
2019-03-29T17:51:01.081Z,8.30
2019-03-29T17:56:03.356Z,7.10
2019-03-29T18:01:13.422Z,7.70
2019-03-29T18:11:34.962Z,8.13
2019-03-29T18:16:40.759Z,9.23
2019-03-29T18:21:48.439Z,8.73
2019-03-29T18:26:49.845Z,8.90
2019-03-29T18:31:51.206Z,8.97
2019-03-29T18:36:52.517Z,9.90
2019-03-29T18:41:53.921Z,9.57
2019-03-29T18:46:55.305Z,9.07
2019-03-29T18:51:56.794Z,10.50
2019-03-29T18:56:58.126Z,8.57
2019-03-29T19:01:59.778Z,9.80
2019-03-29T19:07:00.893Z,9.03
2019-03-29T19:12:02.998Z,8.30
2019-03-29T19:17:04.412Z,9.67
2019-03-29T19:22:08.078Z,9.73
2019-03-29T19:27:13.079Z,9.57
2019-03-29T19:32:18.601Z,8.97
2019-03-29T19:37:27.207Z,10.03
2019-03-29T19:42:31.517Z,9.43
2019-03-29T19:47:36.405Z,10.27
2019-03-29T19:52:40.097Z,9.23
2019-03-29T19:57:47.413Z,9.83
2019-03-29T20:02:48.583Z,10.30
2019-03-29T20:07:49.899Z,10.10
2019-03-29T20:12:52.819Z,9.47
2019-03-29T20:17:54.911Z,11.07
2019-03-29T20:22:56.990Z,9.97
2019-03-29T20:27:59.034Z,10.07
2019-03-29T20:33:00.459Z,10.67
2019-03-29T20:38:01.774Z,10.17
2019-03-29T20:43:03.109Z,11.43
2019-03-29T20:48:04.486Z,10.97
2019-03-29T20:53:05.808Z,12.03
2019-03-29T20:58:08.013Z,13.23
2019-03-29T21:03:09.483Z,12.10
2019-03-29T21:08:10.825Z,11.60
2019-03-29T21:13:12.144Z,11.77
2019-03-29T21:18:13.492Z,12.20
2019-03-29T21:23:14.822Z,11.60
2019-03-29T21:28:16.273Z,16.07
2019-03-29T21:33:17.614Z,12.30
2019-03-29T21:38:18.951Z,12.40
2019-03-29T21:43:20.300Z,12.03
2019-03-29T21:48:28.710Z,12.97
2019-03-29T21:53:23.633Z,12.47
2019-03-29T21:58:25.062Z,13.00
2019-03-29T22:03:27.149Z,12.00
2019-03-29T22:08:29.086Z,13.07
2019-03-29T22:13:30.479Z,14.00
2019-03-29T22:18:37.802Z,13.17
2019-03-29T22:23:33.385Z,13.97
2019-03-29T22:28:34.810Z,13.43
2019-03-29T22:33:36.219Z,13.43
2019-03-29T22:38:37.654Z,13.40
2019-03-29T22:43:39.062Z,12.03
2019-03-29T22:48:51.571Z,12.63
2019-03-29T22:53:41.873Z,12.50
2019-03-29T22:58:43.270Z,12.57
2019-03-29T23:35:26.509Z,12.53
2019-03-29T23:40:27.785Z,11.27
2019-03-29T23:45:29.083Z,11.13
2019-03-29T23:50:30.401Z,12.63
2019-03-29T23:55:31.736Z,12.17
